createdAt,value
2019-05-29T00:00:38.255Z,17.60
2019-05-29T00:03:08.235Z,17.60
2019-05-29T00:10:36.100Z,17.80
2019-05-29T00:13:06.261Z,17.80
2019-05-29T00:15:35.701Z,17.90
2019-05-29T00:18:06.208Z,17.80
2019-05-29T00:20:35.730Z,17.80
2019-05-29T00:28:04.878Z,18.00
2019-05-29T00:30:36.955Z,17.90
2019-05-29T00:33:06.334Z,18.00
2019-05-29T00:35:35.881Z,18.00
2019-05-29T00:38:06.507Z,18.10
2019-05-29T00:40:37.005Z,18.10
2019-05-29T00:43:07.731Z,18.20
2019-05-29T00:45:37.167Z,18.00
2019-05-29T00:49:16.586Z,18.10
2019-05-29T00:51:46.011Z,18.00
2019-05-29T00:54:16.465Z,18.10
2019-05-29T00:56:46.027Z,18.10
2019-05-29T00:59:15.710Z,18.10
2019-05-29T01:01:45.124Z,18.20
2019-05-29T01:04:15.666Z,18.20
2019-05-29T01:06:45.219Z,18.20
2019-05-29T01:09:14.692Z,18.10
2019-05-29T01:11:44.134Z,18.20
2019-05-29T01:14:19.866Z,18.20
2019-05-29T01:16:52.672Z,18.20
2019-05-29T01:19:25.102Z,18.30
2019-05-29T01:21:55.543Z,18.20
2019-05-29T01:24:26.783Z,18.20
2019-05-29T01:26:56.271Z,18.20
2019-05-29T01:29:25.629Z,18.20
2019-05-29T01:31:55.069Z,18.30
2019-05-29T01:34:24.662Z,18.20
2019-05-29T01:36:54.106Z,18.20
2019-05-29T01:39:23.620Z,18.20
2019-05-29T01:41:53.045Z,18.30
2019-05-29T01:44:23.691Z,18.30
2019-05-29T01:46:53.379Z,18.20
2019-05-29T01:49:23.842Z,18.20
2019-05-29T01:51:54.669Z,18.30
2019-05-29T01:54:24.124Z,18.20
2019-05-29T01:56:53.468Z,18.30
2019-05-29T01:59:23.971Z,18.30
2019-05-29T02:01:53.528Z,18.30
2019-05-29T02:04:24.180Z,18.30
2019-05-29T02:06:53.851Z,18.30
2019-05-29T02:11:53.600Z,18.40
2019-05-29T02:14:23.079Z,18.30
2019-05-29T02:16:58.016Z,18.20
2019-05-29T02:19:29.948Z,18.30
2019-05-29T02:21:59.299Z,18.30
2019-05-29T02:24:28.733Z,18.30
2019-05-29T02:29:27.292Z,18.20
2019-05-29T02:31:56.767Z,18.30
2019-05-29T02:34:27.922Z,18.30
2019-05-29T02:39:27.333Z,18.30
2019-05-29T02:41:57.442Z,18.30
2019-05-29T02:44:27.464Z,18.20
2019-05-29T02:46:57.417Z,18.30
2019-05-29T02:49:28.130Z,18.30
2019-05-29T02:51:57.733Z,18.30
2019-05-29T02:54:27.726Z,18.30
2019-05-29T02:56:58.101Z,18.40
2019-05-29T02:59:28.160Z,18.30
2019-05-29T03:01:58.516Z,18.30
2019-05-29T03:04:28.304Z,18.20
2019-05-29T03:06:59.154Z,18.20
2019-05-29T03:09:28.787Z,18.20
2019-05-29T03:12:00.216Z,18.20
2019-05-29T03:14:29.622Z,18.10
2019-05-29T03:16:59.642Z,18.00
2019-05-29T03:19:30.361Z,18.00
2019-05-29T03:22:01.402Z,17.90
2019-05-29T03:24:30.908Z,17.80
2019-05-29T03:27:01.729Z,17.80
2019-05-29T03:29:31.950Z,17.70
2019-05-29T03:32:01.688Z,17.80
2019-05-29T03:34:36.795Z,17.60
2019-05-29T03:37:01.953Z,17.70
2019-05-29T03:39:32.319Z,17.50
2019-05-29T03:42:01.912Z,17.60
2019-05-29T03:44:33.101Z,17.60
2019-05-29T03:49:23.793Z,17.50
2019-05-29T03:51:53.228Z,17.60
2019-05-29T03:54:23.808Z,17.60
2019-05-29T03:56:53.170Z,17.60
2019-05-29T04:01:53.972Z,17.70
2019-05-29T04:04:23.423Z,17.60
2019-05-29T04:06:52.745Z,17.50
2019-05-29T04:09:22.255Z,17.00
2019-05-29T04:11:51.680Z,16.70
2019-05-29T04:14:21.134Z,16.30
2019-05-29T04:16:58.988Z,16.00
2019-05-29T04:19:21.610Z,16.10
2019-05-29T04:24:20.006Z,16.00
2019-05-29T04:26:49.576Z,15.80
2019-05-29T04:29:19.128Z,15.90
2019-05-29T04:31:48.620Z,15.80
2019-05-29T04:34:18.029Z,15.80
2019-05-29T04:36:47.464Z,15.80
2019-05-29T04:39:16.940Z,15.80
2019-05-29T04:44:15.482Z,15.70
2019-05-29T04:46:45.065Z,15.80
2019-05-29T04:49:14.405Z,15.70
2019-05-29T04:51:44.879Z,15.60
2019-05-29T04:56:43.333Z,15.70
2019-05-29T04:59:12.644Z,15.70
2019-05-29T05:04:11.346Z,15.70
2019-05-29T05:06:42.627Z,15.60
2019-05-29T05:09:12.166Z,15.50
2019-05-29T05:11:41.617Z,15.60
2019-05-29T05:14:11.133Z,15.50
2019-05-29T05:16:40.677Z,15.50
2019-05-29T05:21:40.164Z,15.50
2019-05-29T05:24:09.682Z,15.30
2019-05-29T05:26:40.345Z,15.50
2019-05-29T05:29:09.955Z,15.50
2019-05-29T05:31:40.643Z,15.50
2019-05-29T05:34:10.282Z,15.50
2019-05-29T05:36:40.879Z,15.40
2019-05-29T05:39:10.554Z,15.40
2019-05-29T05:41:41.046Z,15.60
2019-05-29T05:44:10.675Z,15.60
2019-05-29T05:46:41.478Z,15.60
2019-05-29T05:51:43.178Z,15.70
2019-05-29T05:54:11.123Z,15.80
2019-05-29T05:56:41.796Z,15.80
2019-05-29T05:59:11.304Z,15.90
2019-05-29T06:01:42.001Z,15.90
2019-05-29T06:04:11.513Z,15.70
2019-05-29T06:09:11.805Z,15.80
2019-05-29T06:11:42.453Z,15.80
2019-05-29T06:14:11.953Z,15.90
2019-05-29T06:16:42.663Z,15.90
2019-05-29T06:19:12.276Z,15.90
2019-05-29T06:21:42.829Z,15.80
2019-05-29T06:24:12.444Z,15.80
2019-05-29T06:26:43.725Z,15.90
2019-05-29T06:29:13.162Z,16.00
2019-05-29T06:31:43.452Z,15.90
2019-05-29T06:34:13.120Z,15.80
2019-05-29T06:36:43.813Z,15.90
2019-05-29T06:39:13.556Z,16.00
2019-05-29T06:41:44.345Z,16.00
2019-05-29T06:44:13.805Z,16.10
2019-05-29T06:46:45.582Z,16.00
2019-05-29T06:49:15.999Z,16.10
2019-05-29T06:51:45.483Z,16.10
2019-05-29T06:54:14.858Z,16.00
2019-05-29T06:56:44.240Z,16.10
2019-05-29T07:01:43.527Z,16.10
2019-05-29T07:04:13.079Z,16.00
2019-05-29T07:06:44.890Z,16.10
2019-05-29T07:09:15.281Z,16.10
2019-05-29T07:11:45.509Z,16.20
2019-05-29T07:14:15.033Z,16.10
2019-05-29T07:16:55.346Z,16.20
2019-05-29T07:21:47.207Z,16.30
2019-05-29T07:24:16.746Z,16.30
2019-05-29T07:26:47.947Z,16.20
2019-05-29T07:29:17.321Z,16.40
2019-05-29T07:31:47.282Z,16.30
2019-05-29T07:34:17.745Z,16.40
2019-05-29T07:36:48.243Z,16.50
2019-05-29T07:39:17.884Z,16.50
2019-05-29T07:42:03.797Z,16.50
2019-05-29T07:44:33.282Z,16.40
2019-05-29T07:47:02.788Z,16.50
2019-05-29T07:52:03.119Z,16.50
2019-05-29T07:57:01.651Z,16.60
2019-05-29T07:59:31.123Z,16.50
2019-05-29T08:02:01.593Z,16.70
2019-05-29T08:04:31.115Z,16.70
2019-05-29T08:07:01.581Z,16.70
2019-05-29T08:12:00.075Z,16.70
2019-05-29T08:14:29.448Z,16.60
2019-05-29T08:16:59.060Z,16.70
2019-05-29T08:19:28.443Z,16.80
2019-05-29T08:21:57.818Z,16.70
2019-05-29T08:24:27.820Z,16.80
2019-05-29T08:26:57.206Z,16.90
2019-05-29T08:29:26.622Z,16.80
2019-05-29T08:31:57.161Z,17.00
2019-05-29T08:34:27.004Z,17.10
2019-05-29T08:37:06.486Z,17.20
2019-05-29T08:42:21.017Z,17.30
2019-05-29T08:44:29.258Z,17.30
2019-05-29T08:47:09.483Z,17.40
2019-05-29T08:49:30.720Z,17.60
2019-05-29T08:52:11.270Z,17.60
2019-05-29T08:54:31.167Z,17.60
2019-05-29T08:57:00.582Z,17.70
2019-05-29T08:59:29.821Z,17.40
2019-05-29T09:01:59.387Z,17.50
2019-05-29T09:04:29.208Z,17.60
2019-05-29T09:06:58.775Z,17.60
2019-05-29T09:09:28.149Z,17.60
2019-05-29T09:11:57.516Z,17.50
2019-05-29T09:14:26.918Z,17.60
2019-05-29T09:19:25.446Z,17.60
2019-05-29T09:21:54.736Z,17.50
2019-05-29T09:24:24.175Z,17.50
2019-05-29T09:26:53.627Z,17.60
2019-05-29T09:31:54.911Z,17.60
2019-05-29T09:34:24.474Z,17.60
2019-05-29T09:36:55.771Z,17.60
2019-05-29T09:39:26.054Z,17.60
2019-05-29T09:41:55.432Z,17.60
2019-05-29T09:44:33.983Z,17.60
2019-05-29T09:46:56.018Z,17.60
2019-05-29T09:49:26.087Z,17.50
2019-05-29T09:51:56.151Z,17.50
2019-05-29T09:59:26.862Z,17.50
2019-05-29T10:01:57.048Z,17.50
2019-05-29T10:06:57.598Z,17.50
2019-05-29T10:09:27.301Z,17.60
2019-05-29T10:12:00.950Z,17.50
2019-05-29T10:14:27.847Z,17.60
2019-05-29T10:19:44.064Z,17.60
2019-05-29T10:29:42.464Z,17.60
2019-05-29T10:32:11.919Z,17.70
2019-05-29T10:34:42.211Z,17.70
2019-05-29T10:37:12.097Z,17.80
2019-05-29T10:39:42.648Z,17.70
2019-05-29T10:42:12.349Z,17.70
2019-05-29T10:44:42.955Z,17.80
2019-05-29T10:47:12.494Z,17.80
2019-05-29T10:49:43.447Z,17.70
2019-05-29T10:52:16.883Z,17.70
2019-05-29T10:54:44.254Z,17.80
2019-05-29T10:57:13.634Z,17.70
2019-05-29T10:59:43.081Z,17.70
2019-05-29T11:02:12.454Z,17.80
2019-05-29T11:04:41.811Z,17.70
2019-05-29T11:09:44.383Z,17.90
2019-05-29T11:12:11.381Z,18.00
2019-05-29T11:14:40.811Z,17.80
2019-05-29T11:17:10.236Z,18.00
2019-05-29T11:22:25.130Z,18.00
2019-05-29T11:24:39.907Z,18.00
2019-05-29T11:27:09.199Z,18.10
2019-05-29T11:29:38.674Z,18.10
2019-05-29T11:32:08.746Z,18.20
2019-05-29T11:34:38.119Z,18.30
2019-05-29T11:37:07.608Z,18.40
2019-05-29T11:39:38.048Z,18.50
2019-05-29T11:42:07.592Z,18.60
2019-05-29T11:44:37.041Z,18.80
2019-05-29T11:47:06.472Z,19.00
2019-05-29T11:49:36.012Z,19.00
2019-05-29T11:52:23.343Z,19.00
2019-05-29T11:54:36.622Z,18.80
2019-05-29T11:57:05.949Z,18.80
2019-05-29T11:59:35.349Z,18.80
2019-05-29T12:02:04.740Z,18.80
2019-05-29T12:04:34.168Z,18.70
2019-05-29T12:07:03.623Z,18.80
2019-05-29T12:09:34.213Z,18.90
2019-05-29T12:12:04.374Z,20.60
2019-05-29T12:14:33.857Z,19.00
2019-05-29T12:17:03.431Z,19.10
2019-05-29T12:19:32.818Z,19.10
2019-05-29T12:22:02.794Z,19.20
2019-05-29T12:24:32.442Z,19.20
2019-05-29T12:27:02.729Z,19.20
2019-05-29T12:29:32.861Z,19.20
2019-05-29T12:32:08.115Z,19.30
2019-05-29T12:34:34.313Z,19.30
2019-05-29T12:37:05.459Z,19.20
2019-05-29T12:39:34.790Z,19.20
2019-05-29T12:42:04.559Z,19.20
2019-05-29T12:44:34.059Z,19.20
2019-05-29T12:47:04.271Z,19.10
2019-05-29T12:49:34.037Z,19.00
2019-05-29T12:52:07.637Z,19.20
2019-05-29T12:54:34.933Z,19.00
2019-05-29T12:57:04.448Z,19.10
2019-05-29T12:59:34.846Z,19.10
2019-05-29T13:02:04.736Z,19.00
2019-05-29T13:05:05.312Z,19.00
2019-05-29T13:07:06.207Z,19.20
2019-05-29T13:09:35.598Z,19.30
2019-05-29T13:12:06.859Z,19.30
2019-05-29T13:14:36.344Z,19.30
2019-05-29T13:17:05.718Z,19.40
2019-05-29T13:22:06.274Z,19.20
2019-05-29T13:27:06.066Z,19.10
2019-05-29T13:29:36.425Z,19.20
2019-05-29T13:32:07.342Z,19.30
2019-05-29T13:34:38.368Z,19.40
2019-05-29T13:37:09.712Z,19.30
2019-05-29T13:39:38.804Z,19.40
2019-05-29T13:42:11.694Z,19.30
2019-05-29T13:44:39.481Z,19.30
2019-05-29T13:47:08.996Z,19.30
2019-05-29T13:49:38.485Z,19.20
2019-05-29T13:52:11.870Z,19.20
2019-05-29T13:54:38.986Z,19.10
2019-05-29T13:59:38.143Z,19.20
2019-05-29T14:02:08.686Z,19.10
2019-05-29T14:04:38.630Z,19.00
2019-05-29T14:07:08.882Z,19.00
2019-05-29T14:09:38.553Z,19.00
2019-05-29T14:12:09.459Z,18.90
2019-05-29T14:14:40.342Z,18.80
2019-05-29T14:17:09.898Z,18.70
2019-05-29T14:19:39.310Z,18.80
2019-05-29T14:22:09.335Z,18.80
2019-05-29T14:24:39.132Z,18.80
2019-05-29T14:27:09.659Z,18.50
2019-05-29T14:29:40.139Z,18.70
2019-05-29T14:32:09.916Z,18.60
2019-05-29T14:34:39.766Z,18.60
2019-05-29T14:37:11.662Z,18.60
2019-05-29T14:42:13.327Z,18.50
2019-05-29T14:44:42.759Z,18.50
2019-05-29T14:47:13.440Z,18.40
2019-05-29T14:49:43.158Z,18.40
2019-05-29T14:53:44.152Z,18.30
2019-05-29T14:56:13.840Z,18.30
2019-05-29T14:58:43.337Z,18.30
2019-05-29T15:01:13.337Z,18.30
2019-05-29T15:05:41.365Z,18.20
2019-05-29T15:09:41.545Z,18.30
2019-05-29T15:13:42.824Z,18.30
2019-05-29T15:16:12.863Z,18.20
2019-05-29T15:18:42.376Z,18.20
2019-05-29T15:21:13.120Z,18.20
2019-05-29T15:25:43.439Z,18.20
2019-05-29T15:29:43.363Z,18.30
2019-05-29T15:33:42.322Z,18.30
2019-05-29T15:37:47.686Z,18.40
2019-05-29T15:40:17.309Z,18.40
2019-05-29T15:42:46.822Z,18.30
2019-05-29T15:45:43.477Z,18.30
2019-05-29T15:48:13.158Z,18.10
2019-05-29T15:55:42.844Z,18.10
2019-05-29T15:58:13.438Z,18.10
2019-05-29T16:00:43.083Z,18.00
2019-05-29T16:03:13.512Z,18.10
2019-05-29T16:05:43.026Z,17.90
2019-05-29T16:08:12.482Z,17.90
2019-05-29T16:10:41.809Z,18.00
2019-05-29T16:13:11.556Z,18.00
2019-05-29T16:15:42.249Z,17.80
2019-05-29T16:18:23.005Z,17.80
2019-05-29T16:20:45.945Z,17.70
2019-05-29T16:23:30.783Z,17.70
2019-05-29T16:25:46.399Z,17.70
2019-05-29T16:30:44.846Z,17.60
2019-05-29T16:33:15.024Z,17.60
2019-05-29T16:35:45.981Z,17.50
2019-05-29T16:38:15.969Z,17.50
2019-05-29T16:45:43.927Z,17.50
2019-05-29T16:48:14.568Z,17.40
2019-05-29T16:51:04.061Z,17.30
2019-05-29T16:53:33.461Z,17.20
2019-05-29T16:58:32.239Z,17.20
2019-05-29T17:01:01.747Z,17.20
2019-05-29T17:03:31.101Z,17.10
2019-05-29T17:06:00.523Z,17.10
2019-05-29T17:08:29.932Z,17.10
2019-05-29T17:11:04.871Z,17.10
2019-05-29T17:13:32.837Z,16.90
2019-05-29T17:16:02.336Z,17.00
2019-05-29T17:18:31.814Z,17.10
2019-05-29T17:21:01.187Z,17.00
2019-05-29T17:26:14.562Z,16.90
2019-05-29T17:28:44.053Z,16.50
2019-05-29T17:31:14.858Z,15.30
2019-05-29T17:33:44.447Z,14.80
2019-05-29T17:36:14.916Z,14.70
2019-05-29T17:38:44.822Z,14.50
2019-05-29T17:41:15.262Z,14.50
2019-05-29T17:45:45.281Z,14.50
2019-05-29T17:48:15.470Z,14.30
2019-05-29T17:50:44.969Z,14.40
2019-05-29T17:53:15.678Z,14.30
2019-05-29T17:55:46.900Z,14.30
2019-05-29T17:58:18.360Z,14.10
2019-05-29T18:00:47.584Z,14.10
2019-05-29T18:03:18.022Z,14.10
2019-05-29T18:05:47.510Z,14.10
2019-05-29T18:08:16.872Z,14.30
2019-05-29T18:10:46.283Z,14.30
2019-05-29T18:13:16.883Z,14.20
2019-05-29T18:20:17.738Z,14.50
2019-05-29T18:25:47.817Z,14.20
2019-05-29T18:28:18.288Z,14.10
2019-05-29T18:30:47.620Z,14.10
2019-05-29T18:33:16.933Z,14.00
2019-05-29T18:35:46.377Z,14.00
2019-05-29T18:38:15.751Z,14.00
2019-05-29T18:40:45.360Z,14.20
2019-05-29T18:43:14.752Z,14.00
2019-05-29T18:45:44.159Z,14.00
2019-05-29T18:48:13.573Z,14.20
2019-05-29T18:50:44.323Z,14.10
2019-05-29T18:53:14.053Z,14.00
2019-05-29T18:55:43.445Z,13.80
2019-05-29T18:58:12.898Z,14.40
2019-05-29T19:01:48.380Z,13.80
2019-05-29T19:04:17.734Z,13.80
2019-05-29T19:06:49.690Z,13.80
2019-05-29T19:09:19.397Z,13.70
2019-05-29T19:11:48.731Z,13.80
2019-05-29T19:14:18.149Z,13.70
2019-05-29T19:16:47.571Z,13.70
2019-05-29T19:21:46.315Z,13.70
2019-05-29T19:24:15.682Z,13.70
2019-05-29T19:26:45.060Z,13.80
2019-05-29T19:29:16.065Z,13.70
2019-05-29T19:33:48.504Z,13.50
2019-05-29T19:36:17.885Z,13.50
2019-05-29T19:38:47.265Z,13.50
2019-05-29T19:41:16.742Z,13.40
2019-05-29T19:43:46.119Z,13.40
2019-05-29T19:46:15.891Z,13.40
2019-05-29T19:48:45.527Z,13.40
2019-05-29T19:51:15.556Z,13.50
2019-05-29T19:56:14.207Z,13.30
2019-05-29T19:58:43.762Z,13.40
2019-05-29T20:01:27.932Z,13.20
2019-05-29T20:03:44.304Z,13.30
2019-05-29T20:06:13.679Z,13.10
2019-05-29T20:13:41.384Z,13.20
2019-05-29T20:16:10.775Z,13.10
2019-05-29T20:18:40.411Z,13.00
2019-05-29T20:23:38.939Z,13.10
2019-05-29T20:26:09.360Z,13.00
2019-05-29T20:28:38.889Z,13.10
2019-05-29T20:31:12.265Z,13.00
2019-05-29T20:33:42.852Z,13.10
2019-05-29T20:36:13.281Z,13.00
2019-05-29T20:38:42.753Z,13.00
2019-05-29T20:41:12.527Z,13.10
2019-05-29T20:43:42.075Z,12.90
2019-05-29T20:46:11.601Z,12.90
2019-05-29T20:48:40.952Z,12.80
2019-05-29T20:51:10.593Z,12.90
2019-05-29T20:53:41.828Z,12.70
2019-05-29T20:56:11.570Z,12.80
2019-05-29T21:01:11.298Z,12.80
2019-05-29T21:03:40.956Z,12.70
2019-05-29T21:08:39.443Z,12.70
2019-05-29T21:18:36.108Z,12.70
2019-05-29T21:21:05.423Z,12.50
2019-05-29T21:23:34.764Z,12.60
2019-05-29T21:26:04.236Z,12.70
2019-05-29T21:28:40.760Z,12.60
2019-05-29T21:31:04.660Z,12.60
2019-05-29T21:33:35.685Z,12.60
2019-05-29T21:36:05.344Z,13.10
2019-05-29T21:38:36.024Z,12.50
2019-05-29T21:41:05.647Z,12.50
2019-05-29T21:48:33.115Z,12.40
2019-05-29T21:53:31.604Z,12.50
2019-05-29T21:56:00.962Z,12.40
2019-05-29T21:58:30.524Z,12.50
2019-05-29T22:00:59.956Z,12.40
2019-05-29T22:03:29.368Z,12.50
2019-05-29T22:08:28.044Z,12.50
2019-05-29T22:10:57.557Z,12.40
2019-05-29T22:13:27.047Z,12.40
2019-05-29T22:15:56.875Z,12.30
2019-05-29T22:18:26.311Z,12.30
2019-05-29T22:20:57.091Z,12.50
2019-05-29T22:25:55.839Z,12.40
2019-05-29T22:33:24.625Z,12.40
2019-05-29T22:35:54.131Z,12.40
2019-05-29T22:40:53.928Z,12.50
2019-05-29T22:43:23.486Z,12.60
2019-05-29T22:45:53.624Z,12.50
2019-05-29T22:48:23.114Z,12.40
2019-05-29T22:53:23.375Z,12.20
2019-05-29T22:55:53.628Z,12.20
2019-05-29T22:58:23.357Z,12.30
2019-05-29T23:03:23.492Z,12.30
2019-05-29T23:05:54.044Z,12.40
2019-05-29T23:08:23.749Z,12.40
2019-05-29T23:13:23.478Z,12.40
2019-05-29T23:15:52.946Z,12.50
2019-05-29T23:18:22.680Z,12.40
2019-05-29T23:23:21.884Z,12.40
2019-05-29T23:28:20.295Z,12.40
2019-05-29T23:30:49.702Z,12.40
2019-05-29T23:33:19.463Z,12.30
2019-05-29T23:35:48.886Z,12.40
2019-05-29T23:40:48.238Z,12.30
2019-05-29T23:43:17.795Z,12.40
2019-05-29T23:45:47.151Z,12.50
2019-05-29T23:48:16.545Z,12.30
2019-05-29T23:53:15.050Z,12.40
2019-05-29T23:55:44.443Z,12.40
2019-05-29T23:58:14.063Z,12.30
